createdAt,value
2019-04-16T00:01:26.532Z,11.17
2019-04-16T00:03:58.083Z,9.37
2019-04-16T00:06:35.659Z,10.10
2019-04-16T00:09:11.271Z,9.50
2019-04-16T00:11:42.837Z,8.97
2019-04-16T00:14:20.482Z,9.77
2019-04-16T00:16:50.491Z,9.40
2019-04-16T00:19:20.449Z,8.27
2019-04-16T00:22:04.020Z,8.77
2019-04-16T00:24:35.554Z,8.97
2019-04-16T00:27:05.622Z,9.67
2019-04-16T00:29:35.589Z,8.27
2019-04-16T00:32:09.177Z,9.40
2019-04-16T00:34:38.857Z,8.93
2019-04-16T00:37:08.843Z,9.80
2019-04-16T00:39:38.817Z,10.83
2019-04-16T00:42:08.931Z,9.70
2019-04-16T00:44:38.917Z,9.70
2019-04-16T00:47:08.918Z,10.27
2019-04-16T00:49:38.891Z,10.00
2019-04-16T00:52:08.888Z,8.97
2019-04-16T00:54:39.316Z,8.23
2019-04-16T00:57:10.551Z,8.00
2019-04-16T00:59:40.529Z,8.80
2019-04-16T01:02:10.607Z,8.33
2019-04-16T01:04:40.582Z,8.67
2019-04-16T01:07:10.526Z,7.57
2019-04-16T01:09:40.797Z,8.37
2019-04-16T01:12:10.737Z,8.23
2019-04-16T01:14:41.014Z,7.80
2019-04-16T01:17:10.960Z,7.63
2019-04-16T01:19:41.814Z,8.17
2019-04-16T01:22:15.733Z,7.53
2019-04-16T01:24:43.603Z,8.10
2019-04-16T01:27:15.305Z,8.87
2019-04-16T01:29:45.384Z,10.00
2019-04-16T01:32:33.134Z,8.23
2019-04-16T01:35:04.670Z,8.97
2019-04-16T01:37:36.173Z,9.10
2019-04-16T01:40:09.235Z,9.33
2019-04-16T01:42:39.229Z,8.37
2019-04-16T01:45:09.197Z,7.60
2019-04-16T01:47:39.130Z,7.83
2019-04-16T01:50:12.970Z,7.13
2019-04-16T01:52:40.838Z,8.40
2019-04-16T01:55:11.148Z,8.53
2019-04-16T01:57:41.040Z,7.60
2019-04-16T02:00:12.327Z,8.30
2019-04-16T02:02:43.468Z,7.63
2019-04-16T02:05:14.030Z,7.83
2019-04-16T02:07:44.152Z,6.87
2019-04-16T02:10:14.419Z,6.93
2019-04-16T02:12:44.556Z,7.67
2019-04-16T02:15:14.900Z,7.13
2019-04-16T02:17:44.833Z,6.97
2019-04-16T02:20:14.796Z,9.07
2019-04-16T02:22:45.265Z,8.30
2019-04-16T02:25:19.015Z,8.50
2019-04-16T02:27:47.405Z,8.80
2019-04-16T02:30:17.398Z,8.00
2019-04-16T02:32:47.416Z,8.67
2019-04-16T02:35:18.277Z,7.90
2019-04-16T02:37:48.233Z,8.63
2019-04-16T02:40:19.003Z,8.17
2019-04-16T02:42:49.261Z,7.47
2019-04-16T02:45:23.147Z,8.27
2019-04-16T02:47:50.979Z,8.33
2019-04-16T02:50:30.638Z,7.50
2019-04-16T02:52:58.533Z,8.27
2019-04-16T02:55:30.211Z,7.83
2019-04-16T02:58:02.359Z,7.60
2019-04-16T03:00:50.852Z,7.90
2019-04-16T03:03:24.923Z,7.57
2019-04-16T03:05:55.611Z,7.97
2019-04-16T03:08:25.582Z,8.03
2019-04-16T03:10:55.557Z,8.33
2019-04-16T03:13:26.325Z,8.90
2019-04-16T03:16:07.708Z,9.90
2019-04-16T03:18:39.356Z,8.20
2019-04-16T03:21:09.322Z,8.23
2019-04-16T03:23:39.369Z,8.70
2019-04-16T03:26:09.374Z,7.33
2019-04-16T03:28:39.342Z,7.80
2019-04-16T03:31:14.865Z,8.07
2019-04-16T03:33:48.610Z,10.57
2019-04-16T03:36:13.766Z,7.80
2019-04-16T03:38:43.757Z,7.70
2019-04-16T03:41:13.758Z,7.33
2019-04-16T03:43:43.728Z,8.10
2019-04-16T03:46:14.197Z,8.70
2019-04-16T03:48:44.400Z,9.40
2019-04-16T03:51:14.393Z,7.73
2019-04-16T03:53:46.449Z,8.00
2019-04-16T03:56:16.026Z,8.37
2019-04-16T03:58:45.996Z,8.17
2019-04-16T04:01:15.973Z,7.90
2019-04-16T04:03:45.961Z,8.60
2019-04-16T04:06:15.939Z,9.10
2019-04-16T04:08:48.296Z,9.50
2019-04-16T04:11:17.574Z,11.60
2019-04-16T04:13:50.053Z,11.77
2019-04-16T04:16:19.425Z,12.87
2019-04-16T04:18:49.403Z,13.57
2019-04-16T04:21:22.309Z,12.80
2019-04-16T04:23:51.071Z,14.10
2019-04-16T04:26:21.163Z,14.50
2019-04-16T04:28:51.523Z,15.70
2019-04-16T04:31:22.689Z,12.80
2019-04-16T04:33:52.766Z,13.60
2019-04-16T04:36:26.435Z,13.73
2019-04-16T04:38:54.442Z,13.13
2019-04-16T04:41:24.452Z,13.37
2019-04-16T04:43:54.432Z,15.07
2019-04-16T04:46:24.374Z,15.67
2019-04-16T04:48:55.611Z,14.93
2019-04-16T04:51:25.978Z,13.90
2019-04-16T04:53:55.952Z,11.93
2019-04-16T04:56:27.981Z,11.00
2019-04-16T04:58:57.587Z,10.90
2019-04-16T05:01:27.530Z,10.53
2019-04-16T05:04:02.047Z,10.67
2019-04-16T05:06:38.809Z,10.10
2019-04-16T05:09:08.778Z,11.43
2019-04-16T05:11:38.721Z,17.43
2019-04-16T05:14:08.710Z,12.23
2019-04-16T05:16:38.732Z,54.33
2019-04-16T05:19:13.626Z,22.93
2019-04-16T05:21:40.362Z,12.60
2019-04-16T05:24:10.338Z,44.47
2019-04-16T05:26:40.286Z,21.10
2019-04-16T05:29:17.514Z,78.27
2019-04-16T05:31:44.703Z,197.53
2019-04-16T05:34:17.635Z,117.80
2019-04-16T05:36:47.938Z,67.13
2019-04-16T05:39:18.142Z,54.50
2019-04-16T05:41:50.484Z,37.47
2019-04-16T05:44:19.898Z,32.13
2019-04-16T05:46:49.873Z,13.83
2019-04-16T05:49:24.636Z,15.87
2019-04-16T05:51:51.611Z,17.77
2019-04-16T05:54:23.161Z,14.97
2019-04-16T05:56:57.539Z,14.93
2019-04-16T05:59:27.514Z,12.73
2019-04-16T06:01:59.050Z,13.00
2019-04-16T06:04:29.045Z,15.70
2019-04-16T06:07:02.864Z,14.23
2019-04-16T06:09:34.014Z,13.70
2019-04-16T06:12:05.954Z,13.77
2019-04-16T06:14:37.599Z,13.47
2019-04-16T06:17:33.225Z,15.10
2019-04-16T06:20:19.021Z,16.07
2019-04-16T06:23:02.751Z,17.47
2019-04-16T06:25:31.658Z,15.83
2019-04-16T06:28:25.864Z,16.67
2019-04-16T06:31:10.210Z,17.23
2019-04-16T06:33:40.699Z,16.90
2019-04-16T06:36:24.342Z,16.30
2019-04-16T06:38:58.953Z,17.50
2019-04-16T06:41:41.424Z,16.03
2019-04-16T06:44:06.909Z,18.13
2019-04-16T06:46:41.288Z,17.93
2019-04-16T06:49:27.914Z,18.00
2019-04-16T06:52:16.049Z,29.10
2019-04-16T06:54:57.117Z,27.73
2019-04-16T06:57:47.007Z,32.40
2019-04-16T07:00:27.799Z,27.13
2019-04-16T07:03:15.888Z,18.23
2019-04-16T07:06:03.947Z,18.40
2019-04-16T07:08:38.177Z,17.80
2019-04-16T07:11:10.707Z,19.10
2019-04-16T07:13:42.238Z,17.27
2019-04-16T07:16:15.135Z,18.60
2019-04-16T07:19:03.693Z,17.50
2019-04-16T07:21:36.419Z,20.00
2019-04-16T07:24:12.498Z,17.83
2019-04-16T07:26:56.644Z,19.07
2019-04-16T07:29:31.666Z,24.33
2019-04-16T07:32:20.592Z,18.53
2019-04-16T07:35:21.959Z,17.37
2019-04-16T07:37:56.765Z,17.30
2019-04-16T07:40:59.509Z,18.63
2019-04-16T07:44:10.758Z,19.13
2019-04-16T07:47:12.420Z,15.43
2019-04-16T07:49:50.141Z,15.67
2019-04-16T07:52:27.695Z,14.77
2019-04-16T07:55:17.996Z,13.90
2019-04-16T07:58:07.026Z,13.77
2019-04-16T08:00:44.941Z,13.27
2019-04-16T08:03:15.039Z,13.07
2019-04-16T08:05:46.462Z,13.00
2019-04-16T08:08:16.740Z,14.03
2019-04-16T08:10:53.050Z,12.73
2019-04-16T08:13:23.824Z,12.50
2019-04-16T08:15:57.548Z,12.33
2019-04-16T08:18:53.211Z,12.63
2019-04-16T08:21:44.668Z,12.30
2019-04-16T08:24:16.371Z,16.93
2019-04-16T08:26:46.353Z,14.57
2019-04-16T08:29:34.041Z,15.50
2019-04-16T08:32:13.102Z,11.57
2019-04-16T08:34:44.413Z,13.30
2019-04-16T08:37:32.105Z,9.20
2019-04-16T08:40:20.047Z,10.13
2019-04-16T08:42:57.001Z,9.23
2019-04-16T08:45:26.434Z,8.47
2019-04-16T08:48:18.720Z,8.23
2019-04-16T08:51:05.777Z,8.87
2019-04-16T08:53:54.764Z,8.97
2019-04-16T08:56:24.745Z,9.07
2019-04-16T08:58:58.586Z,8.97
2019-04-16T09:01:45.842Z,8.40
2019-04-16T09:04:18.855Z,9.90
2019-04-16T09:06:48.843Z,7.83
2019-04-16T09:09:28.882Z,8.47
2019-04-16T09:12:07.741Z,10.67
2019-04-16T09:14:55.918Z,9.63
2019-04-16T09:17:29.114Z,12.03
2019-04-16T09:20:05.663Z,9.70
2019-04-16T09:22:48.281Z,8.13
2019-04-16T09:25:23.804Z,8.57
2019-04-16T09:28:23.806Z,7.67
2019-04-16T09:31:10.957Z,8.13
2019-04-16T09:34:10.040Z,7.37
2019-04-16T09:37:01.837Z,6.53
2019-04-16T09:40:16.506Z,6.00
2019-04-16T09:42:59.059Z,6.60
2019-04-16T09:45:51.968Z,8.10
2019-04-16T09:48:34.453Z,7.63
2019-04-16T09:51:21.513Z,6.50
2019-04-16T09:53:51.676Z,6.90
2019-04-16T09:56:30.004Z,6.33
2019-04-16T09:59:10.939Z,7.50
2019-04-16T10:01:45.500Z,7.27
2019-04-16T10:04:19.805Z,38.43
2019-04-16T10:06:49.963Z,7.37
2019-04-16T10:09:23.743Z,14.87
2019-04-16T10:12:15.240Z,8.50
2019-04-16T10:14:49.359Z,24.13
2019-04-16T10:17:28.414Z,6.97
2019-04-16T10:19:58.395Z,8.33
2019-04-16T10:22:36.244Z,7.70
2019-04-16T10:25:23.261Z,6.97
2019-04-16T10:27:54.860Z,7.20
2019-04-16T10:30:29.786Z,6.63
2019-04-16T10:33:02.196Z,6.27
2019-04-16T10:35:38.216Z,9.83
2019-04-16T10:38:31.973Z,7.03
2019-04-16T10:41:07.960Z,7.87
2019-04-16T10:43:44.723Z,8.60
2019-04-16T10:46:33.583Z,12.67
2019-04-16T10:49:30.670Z,6.33
2019-04-16T10:52:22.299Z,6.07
2019-04-16T10:55:12.935Z,6.63
2019-04-16T10:57:50.819Z,6.60
2019-04-16T11:00:46.206Z,7.80
2019-04-16T11:03:42.289Z,8.07
2019-04-16T11:06:17.107Z,6.53
2019-04-16T11:09:10.494Z,6.90
2019-04-16T11:11:43.533Z,7.13
2019-04-16T11:14:16.368Z,7.43
2019-04-16T11:17:05.973Z,6.90
2019-04-16T11:19:59.931Z,7.90
2019-04-16T11:22:28.852Z,7.33
2019-04-16T11:24:58.839Z,7.10
2019-04-16T11:27:49.815Z,6.80
2019-04-16T11:30:40.528Z,6.70
2019-04-16T11:33:29.565Z,5.63
2019-04-16T11:35:59.651Z,6.70
2019-04-16T11:38:47.808Z,7.63
2019-04-16T11:41:36.394Z,6.63
2019-04-16T11:44:24.903Z,6.90
2019-04-16T11:47:20.423Z,5.80
2019-04-16T11:49:53.513Z,5.37
2019-04-16T11:52:29.708Z,6.27
2019-04-16T11:55:02.892Z,6.70
2019-04-16T11:57:43.673Z,7.77
2019-04-16T12:00:36.631Z,5.57
2019-04-16T12:03:08.336Z,5.00
2019-04-16T12:05:51.840Z,6.83
2019-04-16T12:08:41.172Z,6.30
2019-04-16T12:11:43.760Z,6.73
2019-04-16T12:14:30.699Z,6.20
2019-04-16T12:17:17.675Z,6.00
2019-04-16T12:20:04.169Z,5.07
2019-04-16T12:23:01.906Z,6.00
2019-04-16T12:25:36.294Z,4.67
2019-04-16T12:28:31.472Z,5.37
2019-04-16T12:31:26.616Z,5.20
2019-04-16T12:34:07.717Z,5.07
2019-04-16T12:36:50.862Z,5.67
2019-04-16T12:39:24.724Z,3.87
2019-04-16T12:41:59.743Z,4.77
2019-04-16T12:44:48.363Z,5.60
2019-04-16T12:47:46.432Z,5.47
2019-04-16T12:50:49.407Z,5.30
2019-04-16T12:53:22.671Z,5.50
2019-04-16T12:56:12.512Z,5.40
2019-04-16T12:59:22.119Z,5.30
2019-04-16T13:02:24.095Z,5.43
2019-04-16T13:05:13.132Z,5.70
2019-04-16T13:07:50.316Z,5.57
2019-04-16T13:10:39.462Z,5.90
2019-04-16T13:13:16.976Z,5.27
2019-04-16T13:15:51.195Z,5.03
2019-04-16T13:18:46.403Z,6.40
2019-04-16T13:21:20.825Z,5.57
2019-04-16T13:24:01.464Z,6.10
2019-04-16T13:26:35.651Z,5.87
2019-04-16T13:29:07.301Z,5.20
2019-04-16T13:31:38.967Z,6.70
2019-04-16T13:34:18.345Z,6.03
2019-04-16T13:36:51.913Z,5.67
2019-04-16T13:39:26.800Z,6.57
2019-04-16T13:41:58.218Z,6.00
2019-04-16T13:44:46.535Z,6.60
2019-04-16T13:47:22.476Z,6.27
2019-04-16T13:49:54.085Z,7.63
2019-04-16T13:52:36.833Z,8.57
2019-04-16T13:55:18.062Z,6.90
2019-04-16T13:58:04.480Z,5.97
2019-04-16T14:00:37.141Z,6.40
2019-04-16T14:03:08.865Z,6.00
2019-04-16T14:05:42.691Z,6.83
2019-04-16T14:08:14.659Z,9.30
2019-04-16T14:10:44.691Z,7.30
2019-04-16T14:13:17.319Z,6.70
2019-04-16T14:15:47.274Z,5.83
2019-04-16T14:18:17.252Z,5.33
2019-04-16T14:20:47.256Z,5.40
2019-04-16T14:23:23.371Z,6.73
2019-04-16T14:25:53.392Z,17.20
2019-04-16T14:28:23.490Z,106.47
2019-04-16T14:30:53.511Z,7.90
2019-04-16T14:33:25.146Z,10.50
2019-04-16T14:35:55.132Z,6.83
2019-04-16T14:38:30.003Z,6.80
2019-04-16T14:40:59.964Z,6.57
2019-04-16T14:43:31.644Z,5.63
2019-04-16T14:46:01.873Z,6.70
2019-04-16T14:48:31.992Z,9.33
2019-04-16T14:51:02.561Z,8.87
2019-04-16T14:53:34.294Z,8.37
2019-04-16T14:56:06.451Z,6.27
2019-04-16T14:58:44.342Z,8.60
2019-04-16T15:01:20.132Z,8.53
2019-04-16T15:04:00.665Z,5.93
2019-04-16T15:06:41.354Z,6.47
2019-04-16T15:09:15.990Z,11.90
2019-04-16T15:12:07.444Z,67.10
2019-04-16T15:14:40.021Z,15.87
2019-04-16T15:17:14.566Z,8.30
2019-04-16T15:20:06.984Z,13.13
2019-04-16T15:22:38.524Z,7.00
2019-04-16T15:25:28.271Z,8.13
2019-04-16T15:28:05.852Z,17.23
2019-04-16T15:30:40.393Z,11.97
2019-04-16T15:33:21.244Z,8.60
2019-04-16T15:36:01.821Z,25.37
2019-04-16T15:38:39.667Z,38.30
2019-04-16T15:41:20.577Z,19.00
2019-04-16T15:44:08.683Z,37.83
2019-04-16T15:46:49.515Z,100.03
2019-04-16T15:49:24.154Z,43.23
2019-04-16T15:52:01.758Z,23.07
2019-04-16T15:54:42.122Z,9.17
2019-04-16T16:04:37.078Z,25.47
2019-04-16T16:06:23.399Z,8.50
2019-04-16T16:09:29.251Z,17.17
2019-04-16T16:11:58.713Z,52.70
2019-04-16T16:14:33.042Z,53.77
2019-04-16T16:17:04.187Z,28.20
2019-04-16T16:19:46.699Z,15.07
2019-04-16T16:23:32.835Z,11.13
2019-04-16T16:25:42.148Z,15.53
2019-04-16T16:31:40.380Z,9.30
2019-04-16T16:34:17.937Z,22.30
2019-04-16T16:36:48.450Z,8.57
2019-04-16T16:37:54.675Z,10.67
2019-04-16T16:39:24.883Z,10.63
2019-04-16T16:44:43.182Z,58.00
2019-04-16T16:47:32.852Z,25.83
2019-04-16T16:50:07.516Z,16.33
2019-04-16T16:53:07.171Z,16.83
2019-04-16T16:55:58.301Z,20.60
2019-04-16T16:58:47.165Z,21.67
2019-04-16T17:01:37.160Z,16.00
2019-04-16T17:04:15.935Z,13.10
2019-04-16T17:06:57.641Z,14.97
2019-04-16T17:09:33.477Z,10.17
2019-04-16T17:14:01.314Z,9.63
2019-04-16T17:14:55.879Z,13.37
2019-04-16T17:17:26.898Z,10.53
2019-04-16T17:19:58.265Z,6.53
2019-04-16T17:22:36.340Z,15.60
2019-04-16T17:25:10.501Z,24.03
2019-04-16T17:27:51.537Z,33.27
2019-04-16T17:30:19.070Z,18.70
2019-04-16T17:33:02.324Z,27.60
2019-04-16T17:46:00.869Z,36.90
2019-04-16T17:48:39.019Z,34.83
2019-04-16T17:51:12.580Z,36.40
2019-04-16T17:53:47.637Z,60.37
2019-04-16T17:56:26.700Z,72.83
2019-04-16T17:59:13.512Z,136.50
2019-04-16T18:02:05.452Z,84.77
2019-04-16T18:04:38.374Z,78.10
2019-04-16T18:07:28.125Z,71.83
2019-04-16T18:10:05.239Z,38.37
2019-04-16T18:12:39.561Z,26.70
2019-04-16T18:15:32.014Z,51.50
2019-04-16T18:18:09.449Z,96.67
2019-04-16T18:21:07.008Z,75.50
2019-04-16T18:23:45.576Z,63.13
2019-04-16T18:26:19.159Z,81.80
2019-04-16T18:29:04.265Z,74.17
2019-04-16T18:31:47.129Z,117.30
2019-04-16T18:34:23.586Z,104.30
2019-04-16T18:37:13.179Z,70.90
2019-04-16T18:39:48.888Z,70.27
2019-04-16T18:42:39.289Z,67.60
2019-04-16T18:45:15.893Z,78.90
2019-04-16T18:48:02.853Z,58.90
2019-04-16T18:50:28.177Z,63.23
2019-04-16T18:53:00.202Z,68.70
2019-04-16T18:55:31.054Z,85.73
2019-04-16T18:58:03.467Z,72.37
2019-04-16T19:00:43.895Z,77.93
2019-04-16T19:03:16.392Z,55.03
2019-04-16T19:05:47.388Z,59.07
2019-04-16T19:08:18.154Z,64.73
2019-04-16T19:10:49.871Z,82.60
2019-04-16T19:13:21.504Z,89.77
2019-04-16T19:15:54.182Z,64.83
2019-04-16T19:18:26.651Z,52.70
2019-04-16T19:20:57.303Z,93.57
2019-04-16T19:23:28.792Z,54.50
2019-04-16T19:25:59.408Z,159.33
2019-04-16T19:28:31.219Z,101.00
2019-04-16T19:31:05.324Z,95.57
2019-04-16T19:33:38.280Z,42.57
2019-04-16T19:36:08.377Z,44.90
2019-04-16T19:38:40.771Z,61.50
2019-04-16T19:41:14.117Z,56.80
2019-04-16T19:43:45.903Z,52.67
2019-04-16T19:46:16.895Z,53.53
2019-04-16T19:48:47.714Z,77.30
2019-04-16T19:51:20.631Z,52.70
2019-04-16T19:53:53.559Z,115.67
2019-04-16T19:56:24.998Z,55.50
2019-04-16T19:59:02.746Z,70.03
2019-04-16T20:01:33.036Z,97.20
2019-04-16T20:04:09.721Z,120.87
2019-04-16T20:06:39.115Z,98.00
2019-04-16T20:09:10.317Z,72.87
2019-04-16T20:11:41.296Z,53.33
2019-04-16T20:14:12.519Z,54.43
2019-04-16T20:16:44.903Z,69.67
2019-04-16T20:19:16.247Z,71.10
2019-04-16T20:21:49.140Z,70.90
2019-04-16T20:24:21.509Z,56.30
2019-04-16T20:26:55.535Z,49.47
2019-04-16T20:29:29.517Z,32.87
2019-04-16T20:32:01.045Z,32.90
2019-04-16T20:34:34.760Z,34.70
2019-04-16T20:37:06.394Z,29.97
2019-04-16T20:39:40.919Z,27.17
2019-04-16T20:42:12.558Z,36.20
2019-04-16T20:44:47.922Z,32.67
2019-04-16T20:47:20.028Z,30.07
2019-04-16T20:49:52.445Z,28.50
2019-04-16T20:52:24.886Z,26.70
2019-04-16T20:54:59.370Z,32.93
2019-04-16T20:57:33.686Z,28.90
2019-04-16T21:00:11.036Z,28.67
2019-04-16T21:02:40.160Z,26.53
2019-04-16T21:05:22.017Z,22.13
2019-04-16T21:07:43.920Z,16.67
2019-04-16T21:10:13.707Z,16.27
2019-04-16T21:12:45.326Z,16.93
2019-04-16T21:15:15.461Z,16.27
2019-04-16T21:17:45.408Z,16.10
2019-04-16T21:20:19.155Z,17.13
2019-04-16T21:22:47.132Z,18.10
2019-04-16T21:25:17.122Z,17.80
2019-04-16T21:27:51.571Z,15.10
2019-04-16T21:30:21.590Z,19.20
2019-04-16T21:32:53.148Z,20.03
2019-04-16T21:35:31.964Z,22.37
2019-04-16T21:38:03.981Z,23.03
2019-04-16T21:40:33.995Z,24.80
2019-04-16T21:43:07.741Z,26.77
2019-04-16T21:45:35.754Z,28.23
2019-04-16T21:48:05.905Z,26.40
2019-04-16T21:50:35.913Z,26.93
2019-04-16T21:53:05.885Z,25.47
2019-04-16T21:55:36.200Z,23.13
2019-04-16T21:58:06.750Z,23.33
2019-04-16T22:00:38.430Z,23.20
2019-04-16T22:03:18.982Z,22.57
2019-04-16T22:05:49.064Z,23.83
2019-04-16T22:08:19.088Z,26.83
2019-04-16T22:10:49.036Z,24.17
2019-04-16T22:13:20.060Z,22.63
2019-04-16T22:15:50.198Z,22.60
2019-04-16T22:18:20.176Z,19.63
2019-04-16T22:20:50.112Z,22.37
2019-04-16T22:23:20.114Z,23.97
2019-04-16T22:25:50.091Z,24.10
2019-04-16T22:28:20.091Z,24.40
2019-04-16T22:30:51.485Z,24.37
2019-04-16T22:33:21.714Z,25.10
2019-04-16T22:35:51.692Z,22.20
2019-04-16T22:38:21.668Z,19.60
2019-04-16T22:41:02.828Z,19.00
2019-04-16T22:43:46.675Z,16.43
2019-04-16T22:46:18.219Z,18.70
2019-04-16T22:48:55.390Z,16.43
2019-04-16T22:51:25.973Z,15.87
2019-04-16T22:53:56.235Z,13.47
2019-04-16T22:56:31.058Z,13.37
2019-04-16T22:59:01.040Z,13.43
2019-04-16T23:01:45.697Z,12.53
2019-04-16T23:04:15.859Z,13.17
2019-04-16T23:06:45.930Z,13.43
2019-04-16T23:09:17.182Z,13.47
2019-04-16T23:11:48.019Z,13.90
2019-04-16T23:14:18.087Z,11.90
2019-04-16T23:16:48.176Z,13.30
2019-04-16T23:19:20.558Z,13.37
2019-04-16T23:21:50.058Z,13.87
2019-04-16T23:24:23.017Z,13.63
2019-04-16T23:26:52.016Z,14.53
2019-04-16T23:29:22.106Z,13.80
2019-04-16T23:31:55.068Z,13.53
2019-04-16T23:34:24.004Z,11.83
2019-04-16T23:36:54.081Z,11.30
2019-04-16T23:39:24.177Z,11.83
2019-04-16T23:41:54.153Z,14.27
2019-04-16T23:44:31.818Z,11.60
2019-04-16T23:47:03.365Z,12.00
2019-04-16T23:49:40.894Z,11.80
2019-04-16T23:52:12.435Z,12.07
2019-04-16T23:54:47.018Z,12.93
2019-04-16T23:57:21.594Z,13.77
